sensor_id;sensor_type;location;lat;lon;timestamp;P1;durP1;ratioP1;P2;durP2;ratioP2
75261;SDS011;63859;51.064;4.580;2024-02-04T00:01:42;31.47;;;16.80;;
75261;SDS011;63859;51.064;4.580;2024-02-04T00:04:08;31.40;;;17.13;;
75261;SDS011;63859;51.064;4.580;2024-02-04T00:06:34;33.73;;;18.17;;
75261;SDS011;63859;51.064;4.580;2024-02-04T00:08:59;38.77;;;17.60;;
75261;SDS011;63859;51.064;4.580;2024-02-04T00:11:25;33.80;;;17.77;;
75261;SDS011;63859;51.064;4.580;2024-02-04T00:13:51;31.17;;;16.93;;
75261;SDS011;63859;51.064;4.580;2024-02-04T00:16:17;36.07;;;15.93;;
75261;SDS011;63859;51.064;4.580;2024-02-04T00:18:43;30.73;;;15.23;;
75261;SDS011;63859;51.064;4.580;2024-02-04T00:21:09;32.73;;;17.17;;
75261;SDS011;63859;51.064;4.580;2024-02-04T00:23:34;39.27;;;17.80;;
75261;SDS011;63859;51.064;4.580;2024-02-04T00:26:00;34.27;;;17.47;;
75261;SDS011;63859;51.064;4.580;2024-02-04T00:28:26;36.13;;;16.93;;
75261;SDS011;63859;51.064;4.580;2024-02-04T00:30:53;33.13;;;16.70;;
75261;SDS011;63859;51.064;4.580;2024-02-04T00:33:21;34.67;;;17.63;;
75261;SDS011;63859;51.064;4.580;2024-02-04T00:35:47;31.73;;;16.97;;
75261;SDS011;63859;51.064;4.580;2024-02-04T00:38:13;34.07;;;16.60;;
75261;SDS011;63859;51.064;4.580;2024-02-04T00:40:39;33.80;;;17.73;;
75261;SDS011;63859;51.064;4.580;2024-02-04T00:43:04;36.97;;;17.43;;
75261;SDS011;63859;51.064;4.580;2024-02-04T00:45:30;36.57;;;17.77;;
75261;SDS011;63859;51.064;4.580;2024-02-04T00:47:56;42.00;;;18.13;;
75261;SDS011;63859;51.064;4.580;2024-02-04T00:50:22;29.77;;;15.43;;
75261;SDS011;63859;51.064;4.580;2024-02-04T00:52:47;36.40;;;17.57;;
75261;SDS011;63859;51.064;4.580;2024-02-04T00:55:13;30.80;;;14.07;;
75261;SDS011;63859;51.064;4.580;2024-02-04T00:57:39;35.57;;;15.50;;
75261;SDS011;63859;51.064;4.580;2024-02-04T01:00:05;31.27;;;13.73;;
75261;SDS011;63859;51.064;4.580;2024-02-04T01:02:31;36.00;;;15.97;;
75261;SDS011;63859;51.064;4.580;2024-02-04T01:04:56;32.13;;;14.57;;
75261;SDS011;63859;51.064;4.580;2024-02-04T01:07:22;38.40;;;17.07;;
75261;SDS011;63859;51.064;4.580;2024-02-04T01:09:48;34.83;;;16.67;;
75261;SDS011;63859;51.064;4.580;2024-02-04T01:12:14;36.10;;;16.67;;
75261;SDS011;63859;51.064;4.580;2024-02-04T01:14:40;35.80;;;15.13;;
75261;SDS011;63859;51.064;4.580;2024-02-04T01:17:06;42.23;;;14.90;;
75261;SDS011;63859;51.064;4.580;2024-02-04T01:19:33;41.00;;;16.03;;
75261;SDS011;63859;51.064;4.580;2024-02-04T01:21:58;36.47;;;15.63;;
75261;SDS011;63859;51.064;4.580;2024-02-04T01:24:24;36.77;;;14.83;;
75261;SDS011;63859;51.064;4.580;2024-02-04T01:26:50;32.97;;;15.43;;
75261;SDS011;63859;51.064;4.580;2024-02-04T01:29:16;40.63;;;16.03;;
75261;SDS011;63859;51.064;4.580;2024-02-04T01:31:42;35.87;;;16.40;;
75261;SDS011;63859;51.064;4.580;2024-02-04T01:34:08;38.80;;;15.47;;
75261;SDS011;63859;51.064;4.580;2024-02-04T01:36:33;33.40;;;15.43;;
75261;SDS011;63859;51.064;4.580;2024-02-04T01:38:59;33.17;;;14.87;;
75261;SDS011;63859;51.064;4.580;2024-02-04T01:41:25;32.57;;;13.87;;
75261;SDS011;63859;51.064;4.580;2024-02-04T01:43:52;30.47;;;12.63;;
75261;SDS011;63859;51.064;4.580;2024-02-04T01:46:21;31.70;;;13.97;;
75261;SDS011;63859;51.064;4.580;2024-02-04T01:48:47;28.90;;;13.40;;
75261;SDS011;63859;51.064;4.580;2024-02-04T01:51:14;32.97;;;13.80;;
75261;SDS011;63859;51.064;4.580;2024-02-04T01:53:42;32.77;;;14.57;;
75261;SDS011;63859;51.064;4.580;2024-02-04T01:56:11;31.57;;;14.40;;
75261;SDS011;63859;51.064;4.580;2024-02-04T01:58:38;22.70;;;10.43;;
75261;SDS011;63859;51.064;4.580;2024-02-04T02:01:04;33.50;;;14.43;;
75261;SDS011;63859;51.064;4.580;2024-02-04T02:03:31;27.57;;;12.43;;
75261;SDS011;63859;51.064;4.580;2024-02-04T02:05:57;30.93;;;14.17;;
75261;SDS011;63859;51.064;4.580;2024-02-04T02:08:24;34.27;;;14.83;;
75261;SDS011;63859;51.064;4.580;2024-02-04T02:10:51;33.23;;;14.50;;
75261;SDS011;63859;51.064;4.580;2024-02-04T02:13:30;41.53;;;17.23;;
75261;SDS011;63859;51.064;4.580;2024-02-04T02:16:31;32.63;;;14.97;;
75261;SDS011;63859;51.064;4.580;2024-02-04T02:18:52;35.30;;;17.27;;
75261;SDS011;63859;51.064;4.580;2024-02-04T02:24:10;34.53;;;17.00;;
75261;SDS011;63859;51.064;4.580;2024-02-04T02:26:43;40.33;;;17.40;;
75261;SDS011;63859;51.064;4.580;2024-02-04T02:29:10;34.60;;;17.77;;
75261;SDS011;63859;51.064;4.580;2024-02-04T02:31:36;37.53;;;17.53;;
75261;SDS011;63859;51.064;4.580;2024-02-04T02:34:03;39.50;;;16.63;;
75261;SDS011;63859;51.064;4.580;2024-02-04T02:36:29;47.60;;;18.00;;
75261;SDS011;63859;51.064;4.580;2024-02-04T02:41:28;45.60;;;18.27;;
75261;SDS011;63859;51.064;4.580;2024-02-04T02:43:56;22.37;;;9.07;;
75261;SDS011;63859;51.064;4.580;2024-02-04T02:46:22;33.90;;;14.07;;
75261;SDS011;63859;51.064;4.580;2024-02-04T02:48:49;37.77;;;18.00;;
75261;SDS011;63859;51.064;4.580;2024-02-04T02:51:15;45.13;;;18.17;;
75261;SDS011;63859;51.064;4.580;2024-02-04T02:53:41;52.30;;;19.67;;
75261;SDS011;63859;51.064;4.580;2024-02-04T02:56:07;49.13;;;19.50;;
75261;SDS011;63859;51.064;4.580;2024-02-04T02:58:33;43.10;;;20.03;;
75261;SDS011;63859;51.064;4.580;2024-02-04T03:00:59;41.97;;;18.17;;
75261;SDS011;63859;51.064;4.580;2024-02-04T03:03:24;35.67;;;15.93;;
75261;SDS011;63859;51.064;4.580;2024-02-04T03:05:50;48.03;;;18.67;;
75261;SDS011;63859;51.064;4.580;2024-02-04T03:08:16;48.03;;;19.00;;
75261;SDS011;63859;51.064;4.580;2024-02-04T03:10:42;34.80;;;14.77;;
75261;SDS011;63859;51.064;4.580;2024-02-04T03:13:08;43.70;;;18.73;;
75261;SDS011;63859;51.064;4.580;2024-02-04T03:15:34;42.77;;;18.60;;
75261;SDS011;63859;51.064;4.580;2024-02-04T03:17:59;43.77;;;18.87;;
75261;SDS011;63859;51.064;4.580;2024-02-04T03:20:25;35.70;;;16.97;;
75261;SDS011;63859;51.064;4.580;2024-02-04T03:22:51;40.83;;;17.23;;
75261;SDS011;63859;51.064;4.580;2024-02-04T03:25:16;39.60;;;16.60;;
75261;SDS011;63859;51.064;4.580;2024-02-04T03:27:42;39.03;;;17.83;;
75261;SDS011;63859;51.064;4.580;2024-02-04T03:30:08;43.13;;;18.50;;
75261;SDS011;63859;51.064;4.580;2024-02-04T03:32:33;49.63;;;16.67;;
75261;SDS011;63859;51.064;4.580;2024-02-04T03:35:00;35.03;;;15.43;;
75261;SDS011;63859;51.064;4.580;2024-02-04T03:37:26;31.77;;;15.57;;
75261;SDS011;63859;51.064;4.580;2024-02-04T03:39:51;32.13;;;12.20;;
75261;SDS011;63859;51.064;4.580;2024-02-04T03:42:17;32.90;;;15.33;;
75261;SDS011;63859;51.064;4.580;2024-02-04T03:44:45;32.50;;;14.87;;
75261;SDS011;63859;51.064;4.580;2024-02-04T03:47:11;35.90;;;14.63;;
75261;SDS011;63859;51.064;4.580;2024-02-04T03:49:37;31.03;;;14.87;;
75261;SDS011;63859;51.064;4.580;2024-02-04T03:52:03;34.53;;;13.67;;
75261;SDS011;63859;51.064;4.580;2024-02-04T03:54:29;36.63;;;14.60;;
75261;SDS011;63859;51.064;4.580;2024-02-04T03:56:55;25.40;;;12.17;;
75261;SDS011;63859;51.064;4.580;2024-02-04T03:59:21;29.37;;;14.60;;
75261;SDS011;63859;51.064;4.580;2024-02-04T04:01:47;22.47;;;10.10;;
75261;SDS011;63859;51.064;4.580;2024-02-04T04:04:14;29.13;;;14.23;;
75261;SDS011;63859;51.064;4.580;2024-02-04T04:06:40;28.13;;;14.00;;
75261;SDS011;63859;51.064;4.580;2024-02-04T04:09:07;34.57;;;14.23;;
75261;SDS011;63859;51.064;4.580;2024-02-04T04:11:33;34.30;;;13.87;;
75261;SDS011;63859;51.064;4.580;2024-02-04T04:13:58;28.90;;;14.37;;
75261;SDS011;63859;51.064;4.580;2024-02-04T04:16:24;29.87;;;13.17;;
75261;SDS011;63859;51.064;4.580;2024-02-04T04:18:50;22.20;;;10.77;;
75261;SDS011;63859;51.064;4.580;2024-02-04T04:21:15;24.80;;;11.47;;
75261;SDS011;63859;51.064;4.580;2024-02-04T04:23:41;25.07;;;11.23;;
75261;SDS011;63859;51.064;4.580;2024-02-04T04:26:07;26.50;;;11.03;;
75261;SDS011;63859;51.064;4.580;2024-02-04T04:28:33;19.70;;;10.30;;
75261;SDS011;63859;51.064;4.580;2024-02-04T04:30:59;19.87;;;9.37;;
75261;SDS011;63859;51.064;4.580;2024-02-04T04:33:25;18.57;;;10.00;;
75261;SDS011;63859;51.064;4.580;2024-02-04T04:35:50;23.33;;;10.40;;
75261;SDS011;63859;51.064;4.580;2024-02-04T04:38:16;21.30;;;10.70;;
75261;SDS011;63859;51.064;4.580;2024-02-04T04:40:42;27.13;;;10.47;;
75261;SDS011;63859;51.064;4.580;2024-02-04T04:43:08;18.10;;;9.90;;
75261;SDS011;63859;51.064;4.580;2024-02-04T04:45:33;28.90;;;11.77;;
75261;SDS011;63859;51.064;4.580;2024-02-04T04:47:59;22.50;;;11.80;;
75261;SDS011;63859;51.064;4.580;2024-02-04T04:50:25;21.83;;;11.10;;
75261;SDS011;63859;51.064;4.580;2024-02-04T04:52:51;23.77;;;10.30;;
75261;SDS011;63859;51.064;4.580;2024-02-04T04:55:16;24.73;;;10.57;;
75261;SDS011;63859;51.064;4.580;2024-02-04T04:57:43;24.17;;;10.83;;
75261;SDS011;63859;51.064;4.580;2024-02-04T05:00:09;23.67;;;9.47;;
75261;SDS011;63859;51.064;4.580;2024-02-04T05:02:36;22.90;;;9.83;;
75261;SDS011;63859;51.064;4.580;2024-02-04T05:05:02;30.60;;;11.30;;
75261;SDS011;63859;51.064;4.580;2024-02-04T05:07:28;20.87;;;10.90;;
75261;SDS011;63859;51.064;4.580;2024-02-04T05:09:54;22.87;;;10.20;;
75261;SDS011;63859;51.064;4.580;2024-02-04T05:12:19;24.20;;;11.07;;
75261;SDS011;63859;51.064;4.580;2024-02-04T05:14:45;26.03;;;11.67;;
75261;SDS011;63859;51.064;4.580;2024-02-04T05:17:11;24.57;;;9.60;;
75261;SDS011;63859;51.064;4.580;2024-02-04T05:19:36;25.33;;;11.13;;
75261;SDS011;63859;51.064;4.580;2024-02-04T05:22:02;23.00;;;10.43;;
75261;SDS011;63859;51.064;4.580;2024-02-04T05:24:28;22.47;;;8.80;;
75261;SDS011;63859;51.064;4.580;2024-02-04T05:26:53;27.20;;;11.43;;
75261;SDS011;63859;51.064;4.580;2024-02-04T05:29:19;19.90;;;8.57;;
75261;SDS011;63859;51.064;4.580;2024-02-04T05:31:45;20.47;;;10.33;;
75261;SDS011;63859;51.064;4.580;2024-02-04T05:34:11;20.67;;;10.03;;
75261;SDS011;63859;51.064;4.580;2024-02-04T05:36:37;18.50;;;10.20;;
75261;SDS011;63859;51.064;4.580;2024-02-04T05:39:10;22.33;;;10.80;;
75261;SDS011;63859;51.064;4.580;2024-02-04T05:41:36;22.83;;;10.47;;
75261;SDS011;63859;51.064;4.580;2024-02-04T05:44:02;25.73;;;10.20;;
75261;SDS011;63859;51.064;4.580;2024-02-04T05:46:28;20.73;;;11.77;;
75261;SDS011;63859;51.064;4.580;2024-02-04T05:48:54;17.27;;;9.60;;
75261;SDS011;63859;51.064;4.580;2024-02-04T05:51:21;20.87;;;10.80;;
75261;SDS011;63859;51.064;4.580;2024-02-04T05:53:47;27.50;;;11.30;;
75261;SDS011;63859;51.064;4.580;2024-02-04T05:56:13;22.87;;;11.40;;
75261;SDS011;63859;51.064;4.580;2024-02-04T05:58:39;26.37;;;11.00;;
75261;SDS011;63859;51.064;4.580;2024-02-04T06:01:05;20.63;;;9.80;;
75261;SDS011;63859;51.064;4.580;2024-02-04T06:03:31;22.57;;;9.60;;
75261;SDS011;63859;51.064;4.580;2024-02-04T06:05:57;27.10;;;10.77;;
75261;SDS011;63859;51.064;4.580;2024-02-04T06:08:23;26.40;;;10.40;;
75261;SDS011;63859;51.064;4.580;2024-02-04T06:10:49;22.83;;;9.40;;
75261;SDS011;63859;51.064;4.580;2024-02-04T06:13:15;20.80;;;9.03;;
75261;SDS011;63859;51.064;4.580;2024-02-04T06:15:41;22.77;;;10.33;;
75261;SDS011;63859;51.064;4.580;2024-02-04T06:18:07;25.37;;;11.40;;
75261;SDS011;63859;51.064;4.580;2024-02-04T06:20:33;23.77;;;11.93;;
75261;SDS011;63859;51.064;4.580;2024-02-04T06:22:59;21.03;;;10.27;;
75261;SDS011;63859;51.064;4.580;2024-02-04T06:25:25;26.53;;;11.53;;
75261;SDS011;63859;51.064;4.580;2024-02-04T06:27:51;22.70;;;10.90;;
75261;SDS011;63859;51.064;4.580;2024-02-04T06:30:18;24.93;;;11.70;;
75261;SDS011;63859;51.064;4.580;2024-02-04T06:32:43;27.20;;;10.83;;
75261;SDS011;63859;51.064;4.580;2024-02-04T06:35:09;26.60;;;9.53;;
75261;SDS011;63859;51.064;4.580;2024-02-04T06:37:35;22.70;;;9.47;;
75261;SDS011;63859;51.064;4.580;2024-02-04T06:40:01;19.80;;;8.77;;
75261;SDS011;63859;51.064;4.580;2024-02-04T06:42:26;26.10;;;10.20;;
75261;SDS011;63859;51.064;4.580;2024-02-04T06:44:52;19.07;;;9.73;;
75261;SDS011;63859;51.064;4.580;2024-02-04T06:47:17;21.70;;;10.43;;
75261;SDS011;63859;51.064;4.580;2024-02-04T06:49:43;17.00;;;9.03;;
75261;SDS011;63859;51.064;4.580;2024-02-04T06:52:10;19.93;;;9.33;;
75261;SDS011;63859;51.064;4.580;2024-02-04T06:54:36;20.83;;;9.33;;
75261;SDS011;63859;51.064;4.580;2024-02-04T06:57:01;14.60;;;6.53;;
75261;SDS011;63859;51.064;4.580;2024-02-04T06:59:27;20.70;;;10.33;;
75261;SDS011;63859;51.064;4.580;2024-02-04T07:01:53;22.50;;;9.03;;
75261;SDS011;63859;51.064;4.580;2024-02-04T07:04:19;23.47;;;9.00;;
75261;SDS011;63859;51.064;4.580;2024-02-04T07:06:47;21.30;;;8.87;;
75261;SDS011;63859;51.064;4.580;2024-02-04T07:09:13;21.50;;;8.50;;
75261;SDS011;63859;51.064;4.580;2024-02-04T07:11:38;21.17;;;9.63;;
75261;SDS011;63859;51.064;4.580;2024-02-04T07:14:04;21.87;;;10.03;;
75261;SDS011;63859;51.064;4.580;2024-02-04T07:16:31;22.57;;;9.23;;
75261;SDS011;63859;51.064;4.580;2024-02-04T07:18:57;19.37;;;9.80;;
75261;SDS011;63859;51.064;4.580;2024-02-04T07:21:22;21.90;;;10.73;;
75261;SDS011;63859;51.064;4.580;2024-02-04T07:23:48;23.80;;;10.00;;
75261;SDS011;63859;51.064;4.580;2024-02-04T07:26:14;20.40;;;10.47;;
75261;SDS011;63859;51.064;4.580;2024-02-04T07:28:40;22.70;;;10.43;;
75261;SDS011;63859;51.064;4.580;2024-02-04T07:31:06;19.93;;;9.60;;
75261;SDS011;63859;51.064;4.580;2024-02-04T07:33:32;26.60;;;11.00;;
75261;SDS011;63859;51.064;4.580;2024-02-04T07:35:58;30.33;;;12.17;;
75261;SDS011;63859;51.064;4.580;2024-02-04T07:38:24;25.60;;;10.23;;
75261;SDS011;63859;51.064;4.580;2024-02-04T07:40:50;28.77;;;10.50;;
75261;SDS011;63859;51.064;4.580;2024-02-04T07:43:16;19.33;;;9.73;;
75261;SDS011;63859;51.064;4.580;2024-02-04T07:45:41;26.63;;;11.03;;
75261;SDS011;63859;51.064;4.580;2024-02-04T07:48:07;23.97;;;10.27;;
75261;SDS011;63859;51.064;4.580;2024-02-04T07:50:34;28.63;;;11.57;;
75261;SDS011;63859;51.064;4.580;2024-02-04T07:53:00;25.83;;;11.57;;
75261;SDS011;63859;51.064;4.580;2024-02-04T07:55:26;25.27;;;11.67;;
75261;SDS011;63859;51.064;4.580;2024-02-04T07:57:52;21.97;;;10.23;;
75261;SDS011;63859;51.064;4.580;2024-02-04T08:00:18;20.47;;;10.23;;
75261;SDS011;63859;51.064;4.580;2024-02-04T08:02:44;24.23;;;9.97;;
75261;SDS011;63859;51.064;4.580;2024-02-04T08:05:10;23.83;;;11.20;;
75261;SDS011;63859;51.064;4.580;2024-02-04T08:07:36;22.67;;;9.87;;
75261;SDS011;63859;51.064;4.580;2024-02-04T08:10:02;24.63;;;10.00;;
75261;SDS011;63859;51.064;4.580;2024-02-04T08:12:28;19.70;;;9.60;;
75261;SDS011;63859;51.064;4.580;2024-02-04T08:14:54;17.93;;;9.67;;
75261;SDS011;63859;51.064;4.580;2024-02-04T08:17:19;18.20;;;9.13;;
75261;SDS011;63859;51.064;4.580;2024-02-04T08:19:45;19.70;;;9.70;;
75261;SDS011;63859;51.064;4.580;2024-02-04T08:22:11;19.70;;;8.53;;
75261;SDS011;63859;51.064;4.580;2024-02-04T08:24:36;22.70;;;10.27;;
75261;SDS011;63859;51.064;4.580;2024-02-04T08:27:02;22.17;;;9.40;;
75261;SDS011;63859;51.064;4.580;2024-02-04T08:29:28;16.63;;;8.67;;
75261;SDS011;63859;51.064;4.580;2024-02-04T08:31:54;23.47;;;9.43;;
75261;SDS011;63859;51.064;4.580;2024-02-04T08:34:20;20.63;;;8.47;;
75261;SDS011;63859;51.064;4.580;2024-02-04T08:36:48;19.63;;;8.93;;
75261;SDS011;63859;51.064;4.580;2024-02-04T08:39:15;19.27;;;9.97;;
75261;SDS011;63859;51.064;4.580;2024-02-04T08:41:41;19.43;;;10.03;;
75261;SDS011;63859;51.064;4.580;2024-02-04T08:44:07;17.50;;;9.27;;
75261;SDS011;63859;51.064;4.580;2024-02-04T08:46:34;18.30;;;9.33;;
75261;SDS011;63859;51.064;4.580;2024-02-04T08:48:59;18.43;;;9.77;;
75261;SDS011;63859;51.064;4.580;2024-02-04T08:51:25;17.60;;;10.13;;
75261;SDS011;63859;51.064;4.580;2024-02-04T08:53:51;19.80;;;9.90;;
75261;SDS011;63859;51.064;4.580;2024-02-04T08:56:17;18.33;;;9.13;;
75261;SDS011;63859;51.064;4.580;2024-02-04T08:58:44;15.53;;;8.93;;
75261;SDS011;63859;51.064;4.580;2024-02-04T09:01:10;15.53;;;8.53;;
75261;SDS011;63859;51.064;4.580;2024-02-04T09:03:36;19.30;;;10.37;;
75261;SDS011;63859;51.064;4.580;2024-02-04T09:06:02;21.13;;;9.50;;
75261;SDS011;63859;51.064;4.580;2024-02-04T09:08:28;16.67;;;8.40;;
75261;SDS011;63859;51.064;4.580;2024-02-04T09:10:54;21.57;;;9.07;;
75261;SDS011;63859;51.064;4.580;2024-02-04T09:13:20;15.80;;;8.50;;
75261;SDS011;63859;51.064;4.580;2024-02-04T09:15:46;14.27;;;8.70;;
75261;SDS011;63859;51.064;4.580;2024-02-04T09:18:13;19.93;;;8.77;;
75261;SDS011;63859;51.064;4.580;2024-02-04T09:20:38;16.57;;;8.17;;
75261;SDS011;63859;51.064;4.580;2024-02-04T09:23:04;23.83;;;9.10;;
75261;SDS011;63859;51.064;4.580;2024-02-04T09:25:30;18.67;;;8.73;;
75261;SDS011;63859;51.064;4.580;2024-02-04T09:27:56;23.60;;;9.00;;
75261;SDS011;63859;51.064;4.580;2024-02-04T09:30:22;18.80;;;8.47;;
75261;SDS011;63859;51.064;4.580;2024-02-04T09:32:47;17.37;;;8.03;;
75261;SDS011;63859;51.064;4.580;2024-02-04T09:35:13;15.17;;;7.60;;
75261;SDS011;63859;51.064;4.580;2024-02-04T09:37:39;19.43;;;7.97;;
75261;SDS011;63859;51.064;4.580;2024-02-04T09:40:05;18.73;;;7.70;;
75261;SDS011;63859;51.064;4.580;2024-02-04T09:42:31;12.40;;;6.83;;
75261;SDS011;63859;51.064;4.580;2024-02-04T09:44:57;17.43;;;7.13;;
75261;SDS011;63859;51.064;4.580;2024-02-04T09:47:23;10.63;;;5.00;;
75261;SDS011;63859;51.064;4.580;2024-02-04T09:49:49;14.73;;;6.40;;
75261;SDS011;63859;51.064;4.580;2024-02-04T09:52:16;14.73;;;6.43;;
75261;SDS011;63859;51.064;4.580;2024-02-04T09:54:50;14.93;;;5.57;;
75261;SDS011;63859;51.064;4.580;2024-02-04T09:57:26;15.00;;;5.97;;
75261;SDS011;63859;51.064;4.580;2024-02-04T09:59:54;12.60;;;5.07;;
75261;SDS011;63859;51.064;4.580;2024-02-04T10:02:20;11.13;;;5.20;;
75261;SDS011;63859;51.064;4.580;2024-02-04T10:04:46;12.90;;;5.33;;
75261;SDS011;63859;51.064;4.580;2024-02-04T10:07:11;9.97;;;4.83;;
75261;SDS011;63859;51.064;4.580;2024-02-04T10:09:39;11.50;;;4.40;;
75261;SDS011;63859;51.064;4.580;2024-02-04T10:12:05;11.93;;;4.83;;
75261;SDS011;63859;51.064;4.580;2024-02-04T10:14:33;10.90;;;3.60;;
75261;SDS011;63859;51.064;4.580;2024-02-04T10:16:59;11.80;;;5.00;;
75261;SDS011;63859;51.064;4.580;2024-02-04T10:19:25;11.47;;;4.40;;
75261;SDS011;63859;51.064;4.580;2024-02-04T10:22:01;13.27;;;4.73;;
75261;SDS011;63859;51.064;4.580;2024-02-04T10:24:28;10.67;;;4.63;;
75261;SDS011;63859;51.064;4.580;2024-02-04T10:26:54;8.37;;;4.23;;
75261;SDS011;63859;51.064;4.580;2024-02-04T10:29:21;11.40;;;4.83;;
75261;SDS011;63859;51.064;4.580;2024-02-04T10:31:47;7.37;;;4.30;;
75261;SDS011;63859;51.064;4.580;2024-02-04T10:34:13;11.93;;;4.87;;
75261;SDS011;63859;51.064;4.580;2024-02-04T10:36:42;12.60;;;4.53;;
75261;SDS011;63859;51.064;4.580;2024-02-04T10:39:08;9.80;;;3.90;;
75261;SDS011;63859;51.064;4.580;2024-02-04T10:41:34;12.13;;;5.17;;
75261;SDS011;63859;51.064;4.580;2024-02-04T10:44:08;16.00;;;6.17;;
75261;SDS011;63859;51.064;4.580;2024-02-04T10:46:38;13.50;;;4.57;;
75261;SDS011;63859;51.064;4.580;2024-02-04T10:49:05;11.53;;;4.97;;
75261;SDS011;63859;51.064;4.580;2024-02-04T10:51:35;12.10;;;4.00;;
75261;SDS011;63859;51.064;4.580;2024-02-04T10:54:03;8.90;;;4.87;;
75261;SDS011;63859;51.064;4.580;2024-02-04T10:56:38;9.97;;;4.47;;
75261;SDS011;63859;51.064;4.580;2024-02-04T10:59:07;8.57;;;4.00;;
75261;SDS011;63859;51.064;4.580;2024-02-04T11:01:34;10.53;;;4.87;;
75261;SDS011;63859;51.064;4.580;2024-02-04T11:04:01;8.80;;;4.53;;
75261;SDS011;63859;51.064;4.580;2024-02-04T11:06:29;12.05;;;5.25;;
75261;SDS011;63859;51.064;4.580;2024-02-04T11:08:55;11.52;;;5.30;;
75261;SDS011;63859;51.064;4.580;2024-02-04T11:11:23;10.20;;;5.00;;
75261;SDS011;63859;51.064;4.580;2024-02-04T11:13:54;8.90;;;4.00;;
75261;SDS011;63859;51.064;4.580;2024-02-04T11:16:31;10.52;;;4.45;;
75261;SDS011;63859;51.064;4.580;2024-02-04T11:25:19;9.93;;;5.10;;
75261;SDS011;63859;51.064;4.580;2024-02-04T11:27:45;11.43;;;5.00;;
75261;SDS011;63859;51.064;4.580;2024-02-04T11:30:11;11.57;;;5.37;;
75261;SDS011;63859;51.064;4.580;2024-02-04T11:32:40;9.33;;;4.90;;
75261;SDS011;63859;51.064;4.580;2024-02-04T11:35:06;6.20;;;3.90;;
75261;SDS011;63859;51.064;4.580;2024-02-04T11:37:33;9.05;;;4.50;;
75261;SDS011;63859;51.064;4.580;2024-02-04T11:39:59;9.65;;;5.20;;
75261;SDS011;63859;51.064;4.580;2024-02-04T11:42:31;10.82;;;4.88;;
75261;SDS011;63859;51.064;4.580;2024-02-04T11:45:07;11.50;;;4.53;;
75261;SDS011;63859;51.064;4.580;2024-02-04T11:47:33;9.70;;;4.90;;
75261;SDS011;63859;51.064;4.580;2024-02-04T11:50:02;8.50;;;3.53;;
75261;SDS011;63859;51.064;4.580;2024-02-04T11:52:28;10.40;;;4.97;;
75261;SDS011;63859;51.064;4.580;2024-02-04T11:54:55;8.15;;;3.75;;
75261;SDS011;63859;51.064;4.580;2024-02-04T11:57:21;15.90;;;4.70;;
75261;SDS011;63859;51.064;4.580;2024-02-04T11:59:48;7.10;;;2.83;;
75261;SDS011;63859;51.064;4.580;2024-02-04T12:02:16;10.77;;;4.03;;
75261;SDS011;63859;51.064;4.580;2024-02-04T12:04:45;10.30;;;3.63;;
75261;SDS011;63859;51.064;4.580;2024-02-04T12:07:13;7.15;;;3.28;;
75261;SDS011;63859;51.064;4.580;2024-02-04T12:09:39;7.18;;;3.53;;
75261;SDS011;63859;51.064;4.580;2024-02-04T12:12:06;7.90;;;3.40;;
75261;SDS011;63859;51.064;4.580;2024-02-04T12:14:33;9.55;;;4.07;;
75261;SDS011;63859;51.064;4.580;2024-02-04T12:17:05;10.30;;;3.50;;
75261;SDS011;63859;51.064;4.580;2024-02-04T12:19:31;8.03;;;3.93;;
75261;SDS011;63859;51.064;4.580;2024-02-04T12:21:57;7.97;;;3.35;;
75261;SDS011;63859;51.064;4.580;2024-02-04T12:24:23;7.57;;;2.70;;
75261;SDS011;63859;51.064;4.580;2024-02-04T12:26:49;8.63;;;2.90;;
75261;SDS011;63859;51.064;4.580;2024-02-04T12:29:15;9.48;;;2.95;;
75261;SDS011;63859;51.064;4.580;2024-02-04T12:31:41;14.00;;;3.78;;
75261;SDS011;63859;51.064;4.580;2024-02-04T12:34:07;3.20;;;2.43;;
75261;SDS011;63859;51.064;4.580;2024-02-04T12:36:33;7.97;;;3.20;;
75261;SDS011;63859;51.064;4.580;2024-02-04T12:39:00;6.95;;;3.20;;
75261;SDS011;63859;51.064;4.580;2024-02-04T12:41:28;7.27;;;3.60;;
75261;SDS011;63859;51.064;4.580;2024-02-04T12:43:55;7.18;;;3.20;;
75261;SDS011;63859;51.064;4.580;2024-02-04T12:46:23;8.27;;;3.40;;
75261;SDS011;63859;51.064;4.580;2024-02-04T12:48:52;7.17;;;3.20;;
75261;SDS011;63859;51.064;4.580;2024-02-04T12:51:25;6.43;;;3.70;;
75261;SDS011;63859;51.064;4.580;2024-02-04T12:56:43;8.47;;;3.57;;
75261;SDS011;63859;51.064;4.580;2024-02-04T12:59:11;6.60;;;3.07;;
75261;SDS011;63859;51.064;4.580;2024-02-04T13:01:38;5.87;;;2.70;;
75261;SDS011;63859;51.064;4.580;2024-02-04T13:04:04;9.17;;;3.43;;
75261;SDS011;63859;51.064;4.580;2024-02-04T13:06:30;9.03;;;3.83;;
75261;SDS011;63859;51.064;4.580;2024-02-04T13:08:56;12.33;;;4.33;;
75261;SDS011;63859;51.064;4.580;2024-02-04T13:11:23;7.50;;;3.60;;
75261;SDS011;63859;51.064;4.580;2024-02-04T13:13:49;5.37;;;2.90;;
75261;SDS011;63859;51.064;4.580;2024-02-04T13:16:15;7.57;;;3.08;;
75261;SDS011;63859;51.064;4.580;2024-02-04T13:18:42;8.50;;;3.10;;
75261;SDS011;63859;51.064;4.580;2024-02-04T13:21:07;8.10;;;3.40;;
75261;SDS011;63859;51.064;4.580;2024-02-04T13:23:33;5.93;;;2.90;;
75261;SDS011;63859;51.064;4.580;2024-02-04T13:25:59;6.37;;;3.17;;
75261;SDS011;63859;51.064;4.580;2024-02-04T13:28:26;4.95;;;2.80;;
75261;SDS011;63859;51.064;4.580;2024-02-04T13:30:52;6.97;;;2.92;;
75261;SDS011;63859;51.064;4.580;2024-02-04T13:33:17;5.27;;;2.73;;
75261;SDS011;63859;51.064;4.580;2024-02-04T13:35:43;6.27;;;3.27;;
75261;SDS011;63859;51.064;4.580;2024-02-04T13:38:10;6.03;;;3.00;;
75261;SDS011;63859;51.064;4.580;2024-02-04T13:40:36;3.80;;;2.40;;
75261;SDS011;63859;51.064;4.580;2024-02-04T13:43:02;4.03;;;2.33;;
75261;SDS011;63859;51.064;4.580;2024-02-04T13:45:28;6.47;;;2.83;;
75261;SDS011;63859;51.064;4.580;2024-02-04T13:47:54;5.33;;;2.80;;
75261;SDS011;63859;51.064;4.580;2024-02-04T13:50:20;4.85;;;2.25;;
75261;SDS011;63859;51.064;4.580;2024-02-04T13:52:46;6.57;;;2.43;;
75261;SDS011;63859;51.064;4.580;2024-02-04T13:55:11;7.30;;;2.65;;
75261;SDS011;63859;51.064;4.580;2024-02-04T13:57:37;4.13;;;2.80;;
75261;SDS011;63859;51.064;4.580;2024-02-04T14:00:03;10.80;;;3.00;;
75261;SDS011;63859;51.064;4.580;2024-02-04T14:02:31;3.93;;;2.30;;
75261;SDS011;63859;51.064;4.580;2024-02-04T14:04:57;5.97;;;2.58;;
75261;SDS011;63859;51.064;4.580;2024-02-04T14:07:22;8.87;;;2.97;;
75261;SDS011;63859;51.064;4.580;2024-02-04T14:09:48;2.50;;;1.90;;
75261;SDS011;63859;51.064;4.580;2024-02-04T14:12:15;6.40;;;2.57;;
75261;SDS011;63859;51.064;4.580;2024-02-04T14:14:41;4.47;;;2.20;;
75261;SDS011;63859;51.064;4.580;2024-02-04T14:17:06;6.07;;;2.40;;
75261;SDS011;63859;51.064;4.580;2024-02-04T14:19:32;3.63;;;2.00;;
75261;SDS011;63859;51.064;4.580;2024-02-04T14:21:58;8.18;;;2.63;;
75261;SDS011;63859;51.064;4.580;2024-02-04T14:24:24;8.43;;;3.37;;
75261;SDS011;63859;51.064;4.580;2024-02-04T14:26:55;5.70;;;2.63;;
75261;SDS011;63859;51.064;4.580;2024-02-04T14:29:23;7.55;;;2.65;;
75261;SDS011;63859;51.064;4.580;2024-02-04T14:31:49;7.87;;;3.00;;
75261;SDS011;63859;51.064;4.580;2024-02-04T14:34:15;7.60;;;2.67;;
75261;SDS011;63859;51.064;4.580;2024-02-04T14:36:40;6.83;;;2.93;;
75261;SDS011;63859;51.064;4.580;2024-02-04T14:39:06;7.57;;;3.00;;
75261;SDS011;63859;51.064;4.580;2024-02-04T14:41:34;5.50;;;2.63;;